sensor_id;sensor_type;location;lat;lon;timestamp;P1;durP1;ratioP1;P2;durP2;ratioP2
21110;SDS011;10713;51.912;4.494;2022-08-30T00:00:40;8.88;;;3.80;;
21110;SDS011;10713;51.912;4.494;2022-08-30T00:03:24;13.10;;;4.28;;
21110;SDS011;10713;51.912;4.494;2022-08-30T00:05:51;9.45;;;4.38;;
21110;SDS011;10713;51.912;4.494;2022-08-30T00:08:17;7.95;;;3.60;;
21110;SDS011;10713;51.912;4.494;2022-08-30T00:10:42;9.73;;;3.92;;
21110;SDS011;10713;51.912;4.494;2022-08-30T00:13:10;15.52;;;4.07;;
21110;SDS011;10713;51.912;4.494;2022-08-30T00:15:37;6.20;;;3.65;;
21110;SDS011;10713;51.912;4.494;2022-08-30T00:18:04;7.55;;;3.63;;
21110;SDS011;10713;51.912;4.494;2022-08-30T00:20:30;8.77;;;4.13;;
21110;SDS011;10713;51.912;4.494;2022-08-30T00:22:56;8.75;;;4.05;;
21110;SDS011;10713;51.912;4.494;2022-08-30T00:25:22;10.10;;;4.07;;
21110;SDS011;10713;51.912;4.494;2022-08-30T00:27:48;7.45;;;3.90;;
21110;SDS011;10713;51.912;4.494;2022-08-30T00:30:14;8.15;;;4.05;;
21110;SDS011;10713;51.912;4.494;2022-08-30T00:32:41;6.57;;;3.63;;
21110;SDS011;10713;51.912;4.494;2022-08-30T00:35:07;12.05;;;4.40;;
21110;SDS011;10713;51.912;4.494;2022-08-30T00:37:34;11.60;;;4.10;;
21110;SDS011;10713;51.912;4.494;2022-08-30T00:40:00;8.35;;;3.95;;
21110;SDS011;10713;51.912;4.494;2022-08-30T00:42:26;8.55;;;3.50;;
21110;SDS011;10713;51.912;4.494;2022-08-30T00:44:52;6.55;;;3.72;;
21110;SDS011;10713;51.912;4.494;2022-08-30T00:47:19;7.35;;;4.05;;
21110;SDS011;10713;51.912;4.494;2022-08-30T00:49:45;14.45;;;4.32;;
21110;SDS011;10713;51.912;4.494;2022-08-30T00:52:14;8.10;;;4.15;;
21110;SDS011;10713;51.912;4.494;2022-08-30T00:54:42;7.35;;;4.30;;
21110;SDS011;10713;51.912;4.494;2022-08-30T00:57:10;7.38;;;4.40;;
21110;SDS011;10713;51.912;4.494;2022-08-30T00:59:37;12.45;;;4.00;;
21110;SDS011;10713;51.912;4.494;2022-08-30T01:02:03;13.18;;;4.38;;
21110;SDS011;10713;51.912;4.494;2022-08-30T01:04:29;12.23;;;4.40;;
21110;SDS011;10713;51.912;4.494;2022-08-30T01:06:56;9.57;;;4.60;;
21110;SDS011;10713;51.912;4.494;2022-08-30T01:09:22;9.75;;;4.95;;
21110;SDS011;10713;51.912;4.494;2022-08-30T01:11:48;8.80;;;4.50;;
21110;SDS011;10713;51.912;4.494;2022-08-30T01:14:13;10.13;;;5.75;;
21110;SDS011;10713;51.912;4.494;2022-08-30T01:16:41;10.38;;;6.22;;
21110;SDS011;10713;51.912;4.494;2022-08-30T01:19:16;12.48;;;6.82;;
21110;SDS011;10713;51.912;4.494;2022-08-30T01:21:56;14.30;;;7.38;;
21110;SDS011;10713;51.912;4.494;2022-08-30T01:24:27;16.23;;;7.13;;
21110;SDS011;10713;51.912;4.494;2022-08-30T01:26:54;14.82;;;7.57;;
21110;SDS011;10713;51.912;4.494;2022-08-30T01:29:20;14.38;;;7.18;;
21110;SDS011;10713;51.912;4.494;2022-08-30T01:31:48;10.65;;;6.68;;
21110;SDS011;10713;51.912;4.494;2022-08-30T01:34:14;12.80;;;6.38;;
21110;SDS011;10713;51.912;4.494;2022-08-30T01:36:41;10.60;;;5.72;;
21110;SDS011;10713;51.912;4.494;2022-08-30T01:39:08;11.40;;;5.93;;
21110;SDS011;10713;51.912;4.494;2022-08-30T01:41:35;13.02;;;5.43;;
21110;SDS011;10713;51.912;4.494;2022-08-30T01:44:03;9.30;;;4.68;;
21110;SDS011;10713;51.912;4.494;2022-08-30T01:46:32;8.93;;;5.10;;
21110;SDS011;10713;51.912;4.494;2022-08-30T01:49:01;8.63;;;5.43;;
21110;SDS011;10713;51.912;4.494;2022-08-30T01:51:29;7.53;;;4.95;;
21110;SDS011;10713;51.912;4.494;2022-08-30T01:53:55;9.07;;;4.75;;
21110;SDS011;10713;51.912;4.494;2022-08-30T01:56:21;7.82;;;4.60;;
21110;SDS011;10713;51.912;4.494;2022-08-30T01:58:48;8.07;;;4.97;;
21110;SDS011;10713;51.912;4.494;2022-08-30T02:01:14;9.35;;;4.93;;
21110;SDS011;10713;51.912;4.494;2022-08-30T02:03:42;9.38;;;5.20;;
21110;SDS011;10713;51.912;4.494;2022-08-30T02:06:10;6.15;;;4.78;;
21110;SDS011;10713;51.912;4.494;2022-08-30T02:08:38;9.52;;;4.85;;
21110;SDS011;10713;51.912;4.494;2022-08-30T02:11:04;9.32;;;5.30;;
21110;SDS011;10713;51.912;4.494;2022-08-30T02:13:30;11.68;;;5.47;;
21110;SDS011;10713;51.912;4.494;2022-08-30T02:15:56;10.55;;;4.80;;
21110;SDS011;10713;51.912;4.494;2022-08-30T02:18:22;9.40;;;5.18;;
21110;SDS011;10713;51.912;4.494;2022-08-30T02:20:49;8.85;;;5.25;;
21110;SDS011;10713;51.912;4.494;2022-08-30T02:23:14;9.05;;;5.20;;
21110;SDS011;10713;51.912;4.494;2022-08-30T02:25:40;8.73;;;5.55;;
21110;SDS011;10713;51.912;4.494;2022-08-30T02:28:06;11.18;;;5.28;;
21110;SDS011;10713;51.912;4.494;2022-08-30T02:30:32;9.82;;;4.88;;
21110;SDS011;10713;51.912;4.494;2022-08-30T02:32:58;7.95;;;5.30;;
21110;SDS011;10713;51.912;4.494;2022-08-30T02:35:23;9.55;;;5.65;;
21110;SDS011;10713;51.912;4.494;2022-08-30T02:37:48;15.45;;;6.00;;
21110;SDS011;10713;51.912;4.494;2022-08-30T02:40:14;10.70;;;6.10;;
21110;SDS011;10713;51.912;4.494;2022-08-30T02:42:39;11.02;;;6.00;;
21110;SDS011;10713;51.912;4.494;2022-08-30T02:45:05;9.13;;;5.68;;
21110;SDS011;10713;51.912;4.494;2022-08-30T02:47:32;8.02;;;5.95;;
21110;SDS011;10713;51.912;4.494;2022-08-30T02:49:58;16.45;;;6.50;;
21110;SDS011;10713;51.912;4.494;2022-08-30T02:52:23;9.27;;;6.65;;
21110;SDS011;10713;51.912;4.494;2022-08-30T02:54:48;9.13;;;6.40;;
21110;SDS011;10713;51.912;4.494;2022-08-30T02:57:14;11.10;;;6.93;;
21110;SDS011;10713;51.912;4.494;2022-08-30T02:59:39;9.15;;;6.57;;
21110;SDS011;10713;51.912;4.494;2022-08-30T03:02:08;12.35;;;6.68;;
21110;SDS011;10713;51.912;4.494;2022-08-30T03:04:35;11.52;;;6.93;;
21110;SDS011;10713;51.912;4.494;2022-08-30T03:07:02;9.45;;;6.05;;
21110;SDS011;10713;51.912;4.494;2022-08-30T03:09:28;14.73;;;7.55;;
21110;SDS011;10713;51.912;4.494;2022-08-30T03:11:54;9.90;;;6.30;;
21110;SDS011;10713;51.912;4.494;2022-08-30T03:14:19;12.02;;;7.15;;
21110;SDS011;10713;51.912;4.494;2022-08-30T03:16:44;9.85;;;6.30;;
21110;SDS011;10713;51.912;4.494;2022-08-30T03:19:10;9.30;;;6.88;;
21110;SDS011;10713;51.912;4.494;2022-08-30T03:21:35;9.38;;;6.93;;
21110;SDS011;10713;51.912;4.494;2022-08-30T03:24:01;15.82;;;8.10;;
21110;SDS011;10713;51.912;4.494;2022-08-30T03:26:27;10.27;;;8.13;;
21110;SDS011;10713;51.912;4.494;2022-08-30T03:28:53;13.88;;;7.93;;
21110;SDS011;10713;51.912;4.494;2022-08-30T03:31:18;13.40;;;8.40;;
21110;SDS011;10713;51.912;4.494;2022-08-30T03:33:43;14.73;;;7.82;;
21110;SDS011;10713;51.912;4.494;2022-08-30T03:36:09;17.15;;;8.38;;
21110;SDS011;10713;51.912;4.494;2022-08-30T03:38:34;11.75;;;8.43;;
21110;SDS011;10713;51.912;4.494;2022-08-30T03:41:00;12.05;;;8.27;;
21110;SDS011;10713;51.912;4.494;2022-08-30T03:43:25;13.18;;;8.63;;
21110;SDS011;10713;51.912;4.494;2022-08-30T03:45:50;15.20;;;8.60;;
21110;SDS011;10713;51.912;4.494;2022-08-30T03:48:16;12.65;;;8.95;;
21110;SDS011;10713;51.912;4.494;2022-08-30T03:50:42;14.50;;;9.02;;
21110;SDS011;10713;51.912;4.494;2022-08-30T03:53:07;12.50;;;8.55;;
21110;SDS011;10713;51.912;4.494;2022-08-30T03:55:33;13.60;;;8.52;;
21110;SDS011;10713;51.912;4.494;2022-08-30T03:57:58;12.93;;;8.73;;
21110;SDS011;10713;51.912;4.494;2022-08-30T04:00:24;16.38;;;9.23;;
21110;SDS011;10713;51.912;4.494;2022-08-30T04:02:50;15.95;;;9.40;;
21110;SDS011;10713;51.912;4.494;2022-08-30T04:05:15;12.68;;;8.93;;
21110;SDS011;10713;51.912;4.494;2022-08-30T04:07:40;15.63;;;9.52;;
21110;SDS011;10713;51.912;4.494;2022-08-30T04:10:06;13.98;;;9.65;;
21110;SDS011;10713;51.912;4.494;2022-08-30T04:12:33;16.65;;;9.50;;
21110;SDS011;10713;51.912;4.494;2022-08-30T04:14:59;14.98;;;9.75;;
21110;SDS011;10713;51.912;4.494;2022-08-30T04:17:25;12.13;;;8.30;;
21110;SDS011;10713;51.912;4.494;2022-08-30T04:19:50;16.25;;;10.05;;
21110;SDS011;10713;51.912;4.494;2022-08-30T04:22:16;19.13;;;10.88;;
21110;SDS011;10713;51.912;4.494;2022-08-30T04:24:41;16.67;;;10.10;;
21110;SDS011;10713;51.912;4.494;2022-08-30T04:27:07;14.88;;;9.43;;
21110;SDS011;10713;51.912;4.494;2022-08-30T04:29:33;15.30;;;10.13;;
21110;SDS011;10713;51.912;4.494;2022-08-30T04:31:59;17.63;;;10.23;;
21110;SDS011;10713;51.912;4.494;2022-08-30T04:34:24;14.13;;;10.40;;
21110;SDS011;10713;51.912;4.494;2022-08-30T04:36:50;16.23;;;10.88;;
21110;SDS011;10713;51.912;4.494;2022-08-30T04:39:16;14.07;;;9.05;;
21110;SDS011;10713;51.912;4.494;2022-08-30T04:41:42;21.15;;;10.82;;
21110;SDS011;10713;51.912;4.494;2022-08-30T04:44:07;14.57;;;10.02;;
21110;SDS011;10713;51.912;4.494;2022-08-30T04:46:36;17.85;;;11.50;;
21110;SDS011;10713;51.912;4.494;2022-08-30T04:49:02;17.08;;;10.40;;
21110;SDS011;10713;51.912;4.494;2022-08-30T04:51:28;17.90;;;11.48;;
21110;SDS011;10713;51.912;4.494;2022-08-30T04:53:53;19.48;;;11.60;;
21110;SDS011;10713;51.912;4.494;2022-08-30T04:56:19;18.77;;;11.82;;
21110;SDS011;10713;51.912;4.494;2022-08-30T04:58:47;17.20;;;11.82;;
21110;SDS011;10713;51.912;4.494;2022-08-30T05:01:19;16.15;;;10.77;;
21110;SDS011;10713;51.912;4.494;2022-08-30T05:03:49;20.15;;;11.65;;
21110;SDS011;10713;51.912;4.494;2022-08-30T05:06:16;18.55;;;11.73;;
21110;SDS011;10713;51.912;4.494;2022-08-30T05:08:42;18.33;;;11.98;;
21110;SDS011;10713;51.912;4.494;2022-08-30T05:11:08;20.13;;;10.32;;
21110;SDS011;10713;51.912;4.494;2022-08-30T05:13:34;16.15;;;11.52;;
21110;SDS011;10713;51.912;4.494;2022-08-30T05:16:01;15.70;;;10.93;;
21110;SDS011;10713;51.912;4.494;2022-08-30T05:18:28;19.67;;;12.40;;
21110;SDS011;10713;51.912;4.494;2022-08-30T05:21:03;18.00;;;12.68;;
21110;SDS011;10713;51.912;4.494;2022-08-30T05:23:33;18.05;;;11.50;;
21110;SDS011;10713;51.912;4.494;2022-08-30T05:26:03;15.68;;;11.23;;
21110;SDS011;10713;51.912;4.494;2022-08-30T05:28:31;15.75;;;10.68;;
21110;SDS011;10713;51.912;4.494;2022-08-30T05:30:57;17.10;;;9.80;;
21110;SDS011;10713;51.912;4.494;2022-08-30T05:33:22;15.98;;;10.50;;
21110;SDS011;10713;51.912;4.494;2022-08-30T05:35:47;17.02;;;10.57;;
21110;SDS011;10713;51.912;4.494;2022-08-30T05:38:13;19.30;;;10.90;;
21110;SDS011;10713;51.912;4.494;2022-08-30T05:40:41;13.35;;;9.50;;
21110;SDS011;10713;51.912;4.494;2022-08-30T05:43:08;18.77;;;10.40;;
21110;SDS011;10713;51.912;4.494;2022-08-30T05:45:35;17.95;;;10.35;;
21110;SDS011;10713;51.912;4.494;2022-08-30T05:48:00;15.20;;;9.93;;
21110;SDS011;10713;51.912;4.494;2022-08-30T05:50:26;16.58;;;11.07;;
21110;SDS011;10713;51.912;4.494;2022-08-30T05:52:51;15.40;;;9.63;;
21110;SDS011;10713;51.912;4.494;2022-08-30T05:55:17;15.27;;;10.55;;
21110;SDS011;10713;51.912;4.494;2022-08-30T05:57:43;16.60;;;9.32;;
21110;SDS011;10713;51.912;4.494;2022-08-30T06:00:10;15.25;;;10.35;;
21110;SDS011;10713;51.912;4.494;2022-08-30T06:02:38;15.60;;;9.60;;
21110;SDS011;10713;51.912;4.494;2022-08-30T06:05:04;12.88;;;8.88;;
21110;SDS011;10713;51.912;4.494;2022-08-30T06:07:30;13.57;;;8.68;;
21110;SDS011;10713;51.912;4.494;2022-08-30T06:09:55;15.13;;;9.05;;
21110;SDS011;10713;51.912;4.494;2022-08-30T06:12:21;15.50;;;9.02;;
21110;SDS011;10713;51.912;4.494;2022-08-30T06:14:46;11.38;;;8.18;;
21110;SDS011;10713;51.912;4.494;2022-08-30T06:17:11;12.95;;;8.07;;
21110;SDS011;10713;51.912;4.494;2022-08-30T06:19:37;12.55;;;7.90;;
21110;SDS011;10713;51.912;4.494;2022-08-30T06:22:03;10.27;;;7.47;;
21110;SDS011;10713;51.912;4.494;2022-08-30T06:24:28;13.02;;;8.15;;
21110;SDS011;10713;51.912;4.494;2022-08-30T06:26:54;14.30;;;7.70;;
21110;SDS011;10713;51.912;4.494;2022-08-30T06:29:20;11.60;;;7.55;;
21110;SDS011;10713;51.912;4.494;2022-08-30T06:31:46;10.60;;;7.82;;
21110;SDS011;10713;51.912;4.494;2022-08-30T06:34:12;10.70;;;7.18;;
21110;SDS011;10713;51.912;4.494;2022-08-30T06:36:38;9.18;;;6.90;;
21110;SDS011;10713;51.912;4.494;2022-08-30T06:39:03;10.77;;;6.93;;
21110;SDS011;10713;51.912;4.494;2022-08-30T06:41:30;10.75;;;6.28;;
21110;SDS011;10713;51.912;4.494;2022-08-30T06:43:57;11.10;;;6.80;;
21110;SDS011;10713;51.912;4.494;2022-08-30T06:46:25;9.32;;;6.20;;
21110;SDS011;10713;51.912;4.494;2022-08-30T06:48:53;13.15;;;6.45;;
21110;SDS011;10713;51.912;4.494;2022-08-30T06:51:20;10.30;;;6.18;;
21110;SDS011;10713;51.912;4.494;2022-08-30T06:53:49;10.77;;;6.47;;
21110;SDS011;10713;51.912;4.494;2022-08-30T06:56:15;7.07;;;5.53;;
21110;SDS011;10713;51.912;4.494;2022-08-30T06:58:43;8.93;;;5.50;;
21110;SDS011;10713;51.912;4.494;2022-08-30T07:01:16;6.53;;;5.75;;
21110;SDS011;10713;51.912;4.494;2022-08-30T07:03:43;6.80;;;5.47;;
21110;SDS011;10713;51.912;4.494;2022-08-30T07:06:09;9.25;;;5.75;;
21110;SDS011;10713;51.912;4.494;2022-08-30T07:08:34;7.15;;;5.40;;
21110;SDS011;10713;51.912;4.494;2022-08-30T07:11:00;9.85;;;5.55;;
21110;SDS011;10713;51.912;4.494;2022-08-30T07:13:26;8.10;;;5.40;;
21110;SDS011;10713;51.912;4.494;2022-08-30T07:15:52;7.25;;;5.20;;
21110;SDS011;10713;51.912;4.494;2022-08-30T07:18:18;8.13;;;5.35;;
21110;SDS011;10713;51.912;4.494;2022-08-30T07:21:07;6.97;;;4.97;;
21110;SDS011;10713;51.912;4.494;2022-08-30T07:23:34;7.85;;;5.25;;
21110;SDS011;10713;51.912;4.494;2022-08-30T07:26:05;6.85;;;4.78;;
21110;SDS011;10713;51.912;4.494;2022-08-30T07:28:32;5.95;;;4.95;;
21110;SDS011;10713;51.912;4.494;2022-08-30T07:30:58;6.90;;;5.05;;
21110;SDS011;10713;51.912;4.494;2022-08-30T07:33:23;8.05;;;4.70;;
21110;SDS011;10713;51.912;4.494;2022-08-30T07:35:49;9.05;;;4.80;;
21110;SDS011;10713;51.912;4.494;2022-08-30T07:38:14;7.93;;;4.30;;
21110;SDS011;10713;51.912;4.494;2022-08-30T07:40:40;5.80;;;4.07;;
21110;SDS011;10713;51.912;4.494;2022-08-30T07:43:05;8.52;;;5.57;;
21110;SDS011;10713;51.912;4.494;2022-08-30T07:45:31;12.93;;;6.00;;
21110;SDS011;10713;51.912;4.494;2022-08-30T07:47:57;5.88;;;4.50;;
21110;SDS011;10713;51.912;4.494;2022-08-30T07:50:22;6.68;;;4.28;;
21110;SDS011;10713;51.912;4.494;2022-08-30T07:52:48;7.28;;;4.38;;
21110;SDS011;10713;51.912;4.494;2022-08-30T07:55:13;5.45;;;4.35;;
21110;SDS011;10713;51.912;4.494;2022-08-30T07:57:39;6.53;;;4.25;;
21110;SDS011;10713;51.912;4.494;2022-08-30T08:00:04;6.60;;;3.87;;
21110;SDS011;10713;51.912;4.494;2022-08-30T08:02:31;7.10;;;4.35;;
21110;SDS011;10713;51.912;4.494;2022-08-30T08:04:57;7.57;;;4.05;;
21110;SDS011;10713;51.912;4.494;2022-08-30T08:07:22;9.32;;;4.18;;
21110;SDS011;10713;51.912;4.494;2022-08-30T08:09:48;6.30;;;3.75;;
21110;SDS011;10713;51.912;4.494;2022-08-30T08:12:13;5.00;;;3.47;;
21110;SDS011;10713;51.912;4.494;2022-08-30T08:14:39;5.50;;;3.47;;
21110;SDS011;10713;51.912;4.494;2022-08-30T08:17:05;3.97;;;3.13;;
21110;SDS011;10713;51.912;4.494;2022-08-30T08:19:31;7.00;;;3.10;;
21110;SDS011;10713;51.912;4.494;2022-08-30T08:21:56;7.28;;;3.92;;
21110;SDS011;10713;51.912;4.494;2022-08-30T08:24:24;6.32;;;3.10;;
21110;SDS011;10713;51.912;4.494;2022-08-30T08:26:53;4.32;;;2.80;;
21110;SDS011;10713;51.912;4.494;2022-08-30T08:29:19;12.93;;;2.70;;
21110;SDS011;10713;51.912;4.494;2022-08-30T08:31:45;3.53;;;2.05;;
21110;SDS011;10713;51.912;4.494;2022-08-30T08:34:11;2.75;;;1.88;;
21110;SDS011;10713;51.912;4.494;2022-08-30T08:36:37;5.80;;;2.20;;
21110;SDS011;10713;51.912;4.494;2022-08-30T08:39:03;4.07;;;1.88;;
21110;SDS011;10713;51.912;4.494;2022-08-30T08:44:04;2.40;;;1.67;;
21110;SDS011;10713;51.912;4.494;2022-08-30T08:46:51;6.68;;;2.15;;
21110;SDS011;10713;51.912;4.494;2022-08-30T08:49:28;3.22;;;1.98;;
21110;SDS011;10713;51.912;4.494;2022-08-30T08:51:53;4.10;;;2.17;;
21110;SDS011;10713;51.912;4.494;2022-08-30T08:54:50;4.22;;;2.20;;
21110;SDS011;10713;51.912;4.494;2022-08-30T08:57:22;3.80;;;1.83;;
21110;SDS011;10713;51.912;4.494;2022-08-30T08:59:48;7.10;;;1.98;;
21110;SDS011;10713;51.912;4.494;2022-08-30T09:04:53;3.00;;;1.88;;
21110;SDS011;10713;51.912;4.494;2022-08-30T09:07:23;4.57;;;2.45;;
21110;SDS011;10713;51.912;4.494;2022-08-30T09:09:51;2.75;;;2.08;;
21110;SDS011;10713;51.912;4.494;2022-08-30T09:12:18;4.03;;;2.00;;
21110;SDS011;10713;51.912;4.494;2022-08-30T09:14:52;8.70;;;2.70;;
21110;SDS011;10713;51.912;4.494;2022-08-30T09:17:22;4.90;;;2.22;;
21110;SDS011;10713;51.912;4.494;2022-08-30T09:22:23;7.28;;;2.30;;
21110;SDS011;10713;51.912;4.494;2022-08-30T09:25:03;6.97;;;1.98;;
21110;SDS011;10713;51.912;4.494;2022-08-30T09:27:35;3.13;;;2.25;;
21110;SDS011;10713;51.912;4.494;2022-08-30T09:32:50;8.38;;;2.58;;
21110;SDS011;10713;51.912;4.494;2022-08-30T09:40:24;5.57;;;2.28;;
21110;SDS011;10713;51.912;4.494;2022-08-30T09:43:01;3.75;;;2.22;;
21110;SDS011;10713;51.912;4.494;2022-08-30T09:45:39;9.43;;;2.42;;
21110;SDS011;10713;51.912;4.494;2022-08-30T10:01:49;6.72;;;2.50;;
21110;SDS011;10713;51.912;4.494;2022-08-30T10:04:22;8.00;;;2.63;;
21110;SDS011;10713;51.912;4.494;2022-08-30T10:09:51;5.53;;;2.20;;
21110;SDS011;10713;51.912;4.494;2022-08-30T10:15:11;6.78;;;2.40;;
21110;SDS011;10713;51.912;4.494;2022-08-30T10:20:30;3.15;;;2.40;;
21110;SDS011;10713;51.912;4.494;2022-08-30T10:23:16;7.65;;;2.38;;
21110;SDS011;10713;51.912;4.494;2022-08-30T10:30:54;6.38;;;2.40;;
21110;SDS011;10713;51.912;4.494;2022-08-30T10:33:26;5.72;;;2.50;;
21110;SDS011;10713;51.912;4.494;2022-08-30T10:36:09;6.60;;;2.72;;
21110;SDS011;10713;51.912;4.494;2022-08-30T10:38:38;4.40;;;2.60;;
21110;SDS011;10713;51.912;4.494;2022-08-30T10:44:25;3.30;;;2.20;;
21110;SDS011;10713;51.912;4.494;2022-08-30T10:50:00;6.50;;;2.25;;
21110;SDS011;10713;51.912;4.494;2022-08-30T10:52:40;5.97;;;1.70;;
21110;SDS011;10713;51.912;4.494;2022-08-30T10:55:16;6.60;;;1.90;;
21110;SDS011;10713;51.912;4.494;2022-08-30T10:57:46;4.35;;;1.83;;
21110;SDS011;10713;51.912;4.494;2022-08-30T11:00:13;3.85;;;1.92;;
21110;SDS011;10713;51.912;4.494;2022-08-30T11:05:30;4.35;;;1.65;;
21110;SDS011;10713;51.912;4.494;2022-08-30T11:13:54;3.03;;;1.70;;
21110;SDS011;10713;51.912;4.494;2022-08-30T11:16:21;3.85;;;1.50;;
21110;SDS011;10713;51.912;4.494;2022-08-30T11:19:00;4.03;;;2.13;;
21110;SDS011;10713;51.912;4.494;2022-08-30T11:21:36;4.10;;;1.80;;
21110;SDS011;10713;51.912;4.494;2022-08-30T11:24:10;3.53;;;1.90;;
21110;SDS011;10713;51.912;4.494;2022-08-30T11:29:08;2.67;;;1.70;;
21110;SDS011;10713;51.912;4.494;2022-08-30T11:31:54;4.78;;;1.88;;
21110;SDS011;10713;51.912;4.494;2022-08-30T11:37:08;4.82;;;1.83;;
21110;SDS011;10713;51.912;4.494;2022-08-30T11:42:27;7.25;;;1.88;;
21110;SDS011;10713;51.912;4.494;2022-08-30T11:46:12;2.85;;;1.58;;
21110;SDS011;10713;51.912;4.494;2022-08-30T11:47:58;5.53;;;1.77;;
21110;SDS011;10713;51.912;4.494;2022-08-30T11:53:21;6.53;;;1.98;;
21110;SDS011;10713;51.912;4.494;2022-08-30T11:55:59;3.45;;;1.80;;
21110;SDS011;10713;51.912;4.494;2022-08-30T11:58:38;4.78;;;1.77;;
21110;SDS011;10713;51.912;4.494;2022-08-30T12:01:16;2.90;;;1.88;;
21110;SDS011;10713;51.912;4.494;2022-08-30T12:03:42;8.95;;;1.90;;
21110;SDS011;10713;51.912;4.494;2022-08-30T12:06:09;3.38;;;2.05;;
21110;SDS011;10713;51.912;4.494;2022-08-30T12:08:41;4.57;;;2.05;;
21110;SDS011;10713;51.912;4.494;2022-08-30T12:16:12;3.92;;;1.90;;
21110;SDS011;10713;51.912;4.494;2022-08-30T12:18:47;6.60;;;1.67;;
21110;SDS011;10713;51.912;4.494;2022-08-30T12:26:16;3.05;;;1.60;;
21110;SDS011;10713;51.912;4.494;2022-08-30T12:28:42;5.25;;;1.67;;
21110;SDS011;10713;51.912;4.494;2022-08-30T12:31:12;3.70;;;1.80;;
21110;SDS011;10713;51.912;4.494;2022-08-30T12:33:42;4.03;;;1.90;;
21110;SDS011;10713;51.912;4.494;2022-08-30T12:36:22;12.05;;;2.13;;
21110;SDS011;10713;51.912;4.494;2022-08-30T12:39:03;4.75;;;1.83;;
21110;SDS011;10713;51.912;4.494;2022-08-30T12:41:33;4.22;;;1.55;;
21110;SDS011;10713;51.912;4.494;2022-08-30T12:43:59;4.53;;;1.50;;
21110;SDS011;10713;51.912;4.494;2022-08-30T12:46:25;4.43;;;1.63;;
21110;SDS011;10713;51.912;4.494;2022-08-30T12:48:51;5.28;;;2.22;;
21110;SDS011;10713;51.912;4.494;2022-08-30T12:51:28;3.17;;;1.52;;
21110;SDS011;10713;51.912;4.494;2022-08-30T12:54:06;2.35;;;1.50;;
21110;SDS011;10713;51.912;4.494;2022-08-30T12:56:44;4.75;;;1.38;;
21110;SDS011;10713;51.912;4.494;2022-08-30T13:05:33;5.05;;;1.60;;
21110;SDS011;10713;51.912;4.494;2022-08-30T13:08:16;3.05;;;1.50;;
21110;SDS011;10713;51.912;4.494;2022-08-30T13:10:54;5.05;;;1.80;;
21110;SDS011;10713;51.912;4.494;2022-08-30T13:13:29;3.38;;;1.60;;
21110;SDS011;10713;51.912;4.494;2022-08-30T13:16:05;3.25;;;1.60;;
21110;SDS011;10713;51.912;4.494;2022-08-30T13:18:32;7.68;;;1.88;;
21110;SDS011;10713;51.912;4.494;2022-08-30T13:21:31;3.30;;;1.48;;
21110;SDS011;10713;51.912;4.494;2022-08-30T13:23:55;2.70;;;1.60;;
21110;SDS011;10713;51.912;4.494;2022-08-30T13:26:26;6.00;;;1.60;;
21110;SDS011;10713;51.912;4.494;2022-08-30T13:28:53;3.20;;;1.60;;
21110;SDS011;10713;51.912;4.494;2022-08-30T13:31:20;2.53;;;1.48;;
21110;SDS011;10713;51.912;4.494;2022-08-30T13:33:46;4.65;;;1.95;;
21110;SDS011;10713;51.912;4.494;2022-08-30T13:36:16;4.43;;;1.60;;
21110;SDS011;10713;51.912;4.494;2022-08-30T13:38:41;2.53;;;1.73;;
21110;SDS011;10713;51.912;4.494;2022-08-30T13:41:07;3.08;;;1.70;;
21110;SDS011;10713;51.912;4.494;2022-08-30T13:43:32;2.92;;;1.58;;
21110;SDS011;10713;51.912;4.494;2022-08-30T13:45:58;3.63;;;1.80;;
21110;SDS011;10713;51.912;4.494;2022-08-30T13:48:23;6.97;;;2.00;;
21110;SDS011;10713;51.912;4.494;2022-08-30T13:50:50;5.00;;;1.75;;
21110;SDS011;10713;51.912;4.494;2022-08-30T13:53:15;5.90;;;1.90;;
21110;SDS011;10713;51.912;4.494;2022-08-30T13:55:41;6.60;;;2.33;;
21110;SDS011;10713;51.912;4.494;2022-08-30T13:58:07;3.08;;;1.83;;
21110;SDS011;10713;51.912;4.494;2022-08-30T14:00:33;7.55;;;2.30;;
21110;SDS011;10713;51.912;4.494;2022-08-30T14:03:00;3.60;;;2.10;;
21110;SDS011;10713;51.912;4.494;2022-08-30T14:05:35;5.10;;;2.08;;
21110;SDS011;10713;51.912;4.494;2022-08-30T14:08:04;5.82;;;2.13;;
21110;SDS011;10713;51.912;4.494;2022-08-30T14:10:31;3.88;;;2.30;;
21110;SDS011;10713;51.912;4.494;2022-08-30T14:12:57;7.20;;;2.25;;
21110;SDS011;10713;51.912;4.494;2022-08-30T14:15:23;5.93;;;2.20;;
21110;SDS011;10713;51.912;4.494;2022-08-30T14:17:48;6.38;;;2.20;;
21110;SDS011;10713;51.912;4.494;2022-08-30T14:20:14;5.43;;;2.10;;
21110;SDS011;10713;51.912;4.494;2022-08-30T14:22:39;6.38;;;2.50;;
21110;SDS011;10713;51.912;4.494;2022-08-30T14:25:05;5.65;;;2.17;;
21110;SDS011;10713;51.912;4.494;2022-08-30T14:27:30;3.30;;;2.00;;
21110;SDS011;10713;51.912;4.494;2022-08-30T14:29:56;5.55;;;2.13;;
21110;SDS011;10713;51.912;4.494;2022-08-30T14:32:22;3.65;;;2.30;;
21110;SDS011;10713;51.912;4.494;2022-08-30T14:34:47;4.22;;;1.80;;
21110;SDS011;10713;51.912;4.494;2022-08-30T14:37:13;2.72;;;2.00;;
21110;SDS011;10713;51.912;4.494;2022-08-30T14:39:38;5.32;;;1.98;;
21110;SDS011;10713;51.912;4.494;2022-08-30T14:42:04;7.35;;;2.30;;
21110;SDS011;10713;51.912;4.494;2022-08-30T14:44:30;5.20;;;2.10;;
21110;SDS011;10713;51.912;4.494;2022-08-30T14:46:56;4.03;;;2.10;;
21110;SDS011;10713;51.912;4.494;2022-08-30T14:49:21;4.38;;;2.10;;
21110;SDS011;10713;51.912;4.494;2022-08-30T14:51:47;6.97;;;2.00;;
21110;SDS011;10713;51.912;4.494;2022-08-30T14:54:14;5.22;;;2.00;;
21110;SDS011;10713;51.912;4.494;2022-08-30T14:56:41;6.55;;;2.10;;
21110;SDS011;10713;51.912;4.494;2022-08-30T14:59:07;5.95;;;1.90;;
21110;SDS011;10713;51.912;4.494;2022-08-30T15:01:32;6.20;;;2.20;;
21110;SDS011;10713;51.912;4.494;2022-08-30T15:03:59;4.00;;;1.77;;
21110;SDS011;10713;51.912;4.494;2022-08-30T15:06:24;5.93;;;1.80;;
21110;SDS011;10713;51.912;4.494;2022-08-30T15:08:50;10.95;;;2.20;;
21110;SDS011;10713;51.912;4.494;2022-08-30T15:11:17;6.47;;;2.28;;
21110;SDS011;10713;51.912;4.494;2022-08-30T15:13:44;5.13;;;1.85;;
21110;SDS011;10713;51.912;4.494;2022-08-30T15:16:11;4.72;;;1.88;;
21110;SDS011;10713;51.912;4.494;2022-08-30T15:18:42;4.00;;;2.00;;
21110;SDS011;10713;51.912;4.494;2022-08-30T15:21:08;4.45;;;1.83;;
21110;SDS011;10713;51.912;4.494;2022-08-30T15:23:34;5.70;;;1.70;;
21110;SDS011;10713;51.912;4.494;2022-08-30T15:25:59;3.90;;;2.08;;
21110;SDS011;10713;51.912;4.494;2022-08-30T15:28:25;3.97;;;1.77;;
21110;SDS011;10713;51.912;4.494;2022-08-30T15:30:50;3.90;;;1.77;;
21110;SDS011;10713;51.912;4.494;2022-08-30T15:33:16;4.68;;;1.90;;
21110;SDS011;10713;51.912;4.494;2022-08-30T15:35:41;8.60;;;2.03;;
21110;SDS011;10713;51.912;4.494;2022-08-30T15:38:07;4.10;;;1.60;;
21110;SDS011;10713;51.912;4.494;2022-08-30T15:40:33;3.90;;;1.98;;
21110;SDS011;10713;51.912;4.494;2022-08-30T15:43:00;3.63;;;1.63;;
21110;SDS011;10713;51.912;4.494;2022-08-30T15:45:27;3.40;;;1.80;;
21110;SDS011;10713;51.912;4.494;2022-08-30T15:47:52;4.05;;;1.70;;
21110;SDS011;10713;51.912;4.494;2022-08-30T15:50:18;6.90;;;1.80;;
21110;SDS011;10713;51.912;4.494;2022-08-30T15:52:43;5.95;;;1.60;;
21110;SDS011;10713;51.912;4.494;2022-08-30T15:55:08;4.15;;;1.50;;
21110;SDS011;10713;51.912;4.494;2022-08-30T15:57:34;4.57;;;1.80;;
21110;SDS011;10713;51.912;4.494;2022-08-30T15:59:59;4.35;;;2.03;;
21110;SDS011;10713;51.912;4.494;2022-08-30T16:02:25;3.03;;;1.98;;
21110;SDS011;10713;51.912;4.494;2022-08-30T16:04:50;8.70;;;2.10;;
21110;SDS011;10713;51.912;4.494;2022-08-30T16:07:15;3.38;;;1.70;;
21110;SDS011;10713;51.912;4.494;2022-08-30T16:09:41;2.85;;;1.70;;
21110;SDS011;10713;51.912;4.494;2022-08-30T16:12:06;3.75;;;1.75;;